Time;durP1;ratioP1;P1;durP2;ratioP2;P2;SDS_P1;SDS_P2;PMS_P1;PMS_P2;Temp;Humidity;BMP_temperature;BMP_pressure;BME280_temperature;BME280_humidity;BME280_pressure;Samples;Min_cycle;Max_cycle;Signal;HPM_P1;HPM_P2
2022/03/09 00:02:12;;;;;;;;;27.75;25.25;;;;;20.23;32.71;101514.88;5056536;27;51352;-48
2022/03/09 00:04:37;;;;;;;;;27.25;27.00;;;;;20.22;32.40;101507.69;5059849;28;52712;-50
2022/03/09 00:07:04;;;;;;;;;29.50;28.00;;;;;20.21;32.76;101505.13;5060240;27;51036;-48
2022/03/09 00:09:29;;;;;;;;;32.50;30.50;;;;;20.19;32.49;101508.94;5068647;28;51263;-51
2022/03/09 00:11:54;;;;;;;;;30.50;25.75;;;;;20.18;32.62;101511.88;5060206;28;51140;-51
2022/03/09 00:14:20;;;;;;;;;29.75;25.25;;;;;20.17;32.44;101515.69;5057531;28;51013;-49
2022/03/09 00:16:45;;;;;;;;;28.00;26.50;;;;;20.16;32.73;101514.00;5065416;27;51090;-49
2022/03/09 00:19:10;;;;;;;;;27.00;25.75;;;;;20.12;32.61;101516.31;5061313;28;51183;-48
2022/03/09 00:21:36;;;;;;;;;29.25;26.00;;;;;20.12;32.55;101512.72;5058085;28;50996;-51
2022/03/09 00:24:02;;;;;;;;;28.50;25.25;;;;;20.11;32.42;101516.50;5063915;28;52791;-52
2022/03/09 00:26:27;;;;;;;;;28.00;24.00;;;;;20.10;32.84;101518.41;5055972;27;51307;-52
2022/03/09 00:28:52;;;;;;;;;27.00;23.75;;;;;20.08;32.37;101514.16;5057447;27;51281;-48
2022/03/09 00:31:18;;;;;;;;;27.25;22.75;;;;;20.08;32.38;101520.50;5064814;28;51106;-50
2022/03/09 00:33:43;;;;;;;;;33.50;28.25;;;;;20.06;32.68;101519.88;5060115;28;51777;-48
2022/03/09 00:36:08;;;;;;;;;30.00;26.00;;;;;20.05;32.45;101523.69;5061899;28;51072;-50
2022/03/09 00:38:34;;;;;;;;;26.50;24.75;;;;;20.04;32.47;101529.38;5060259;28;51255;-51
2022/03/09 00:41:01;;;;;;;;;27.50;25.75;;;;;20.03;32.48;101531.28;5066086;27;51116;-52
2022/03/09 00:43:27;;;;;;;;;31.00;26.75;;;;;20.01;32.17;101527.91;5058015;28;51129;-52
2022/03/09 00:45:53;;;;;;;;;32.50;30.25;;;;;20.01;32.34;101529.75;5059671;28;51104;-49
2022/03/09 00:48:19;;;;;;;;;29.75;24.25;;;;;19.98;32.09;101528.28;5059878;27;51155;-52
2022/03/09 00:50:44;;;;;;;;;28.75;26.25;;;;;19.99;32.40;101529.13;5059666;27;50984;-52
2022/03/09 00:53:09;;;;;;;;;36.50;28.75;;;;;19.98;32.24;101533.78;5065846;28;51782;-50
2022/03/09 00:55:35;;;;;;;;;30.50;28.00;;;;;19.96;32.46;101538.63;5059120;28;51054;-50
2022/03/09 00:58:00;;;;;;;;;30.00;28.50;;;;;19.95;32.45;101539.69;5065359;28;51478;-54
2022/03/09 01:00:25;;;;;;;;;41.25;31.75;;;;;19.94;32.20;101539.91;5066333;27;50979;-49
2022/03/09 01:02:51;;;;;;;;;37.25;28.00;;;;;19.93;32.28;101552.81;5056099;28;51247;-51
2022/03/09 01:05:16;;;;;;;;;32.50;28.00;;;;;19.93;32.40;101551.94;5063643;28;50972;-49
2022/03/09 01:07:42;;;;;;;;;24.75;24.25;;;;;19.92;32.58;101551.09;5059656;27;51545;-49
2022/03/09 01:10:08;;;;;;;;;38.25;30.00;;;;;19.90;32.27;101539.44;5057900;28;51025;-48
2022/03/09 01:12:34;;;;;;;;;29.25;26.50;;;;;19.89;32.45;101538.59;5061496;28;52343;-48
2022/03/09 01:14:59;;;;;;;;;29.50;28.75;;;;;19.88;32.18;101544.28;5066505;28;51097;-50
2022/03/09 01:17:26;;;;;;;;;29.75;26.50;;;;;19.87;32.38;101548.09;5057857;27;51434;-51
2022/03/09 01:19:51;;;;;;;;;31.25;26.75;;;;;19.86;32.47;101554.66;5066138;27;51319;-52
2022/03/09 01:22:17;;;;;;;;;36.25;30.75;;;;;19.85;32.14;101550.19;5064722;28;51058;-48
2022/03/09 01:24:42;;;;;;;;;38.00;29.50;;;;;19.85;32.41;101544.69;5067209;28;51068;-51
2022/03/09 01:27:08;;;;;;;;;30.50;24.75;;;;;19.85;32.16;101552.94;5060585;28;51137;-50
2022/03/09 01:29:33;;;;;;;;;31.00;28.00;;;;;19.83;32.19;101550.41;5072982;27;51471;-53
2022/03/09 01:31:58;;;;;;;;;31.75;29.25;;;;;19.81;32.43;101547.00;5063662;28;51690;-51
2022/03/09 01:34:24;;;;;;;;;32.75;29.00;;;;;19.81;32.41;101551.66;5059565;28;51212;-49
2022/03/09 01:36:49;;;;;;;;;30.75;27.00;;;;;19.79;32.23;101551.00;5086725;27;51091;-52
2022/03/09 01:39:14;;;;;;;;;28.50;25.50;;;;;19.78;32.30;101546.53;5060036;27;50957;-51
2022/03/09 01:41:40;;;;;;;;;34.25;28.50;;;;;19.78;32.25;101543.78;5064695;27;51016;-57
2022/03/09 01:44:06;;;;;;;;;33.50;30.25;;;;;19.77;32.15;101542.09;5064633;28;51232;-48
2022/03/09 01:46:32;;;;;;;;;35.50;30.00;;;;;19.77;32.38;101542.09;5063082;28;51120;-52
2022/03/09 01:48:57;;;;;;;;;35.50;28.25;;;;;19.75;32.28;101534.06;5061472;28;51169;-50
2022/03/09 01:51:23;;;;;;;;;33.00;30.50;;;;;19.75;32.44;101535.97;5060519;28;51757;-50
2022/03/09 01:53:49;;;;;;;;;35.50;29.75;;;;;19.74;32.51;101537.00;5066465;28;51673;-51
2022/03/09 01:56:14;;;;;;;;;33.75;31.75;;;;;19.73;32.40;101536.16;5059634;28;51153;-52
2022/03/09 01:58:40;;;;;;;;;37.25;31.25;;;;;19.74;32.49;101537.88;5061989;28;51073;-53
2022/03/09 02:01:05;;;;;;;;;30.50;27.25;;;;;19.73;32.43;101543.56;5063800;28;51861;-51
2022/03/09 02:03:31;;;;;;;;;31.00;26.75;;;;;19.73;32.38;101538.06;5065423;28;51112;-54
2022/03/09 02:05:56;;;;;;;;;33.50;30.50;;;;;19.70;32.16;101528.34;5063785;27;51457;-52
2022/03/09 02:11:06;;;;;;;;;31.75;26.50;;;;;19.70;32.55;101527.47;5065851;28;51821;-50
2022/03/09 02:13:37;;;;;;;;;35.75;28.25;;;;;19.69;32.18;101528.50;5073752;27;51116;-52
2022/03/09 02:16:03;;;;;;;;;32.25;28.75;;;;;19.69;32.33;101528.50;5065973;28;51171;-54
2022/03/09 02:18:28;;;;;;;;;31.00;26.75;;;;;19.68;32.26;101521.31;5077876;27;51071;-52
2022/03/09 02:21:00;;;;;;;;;32.00;28.50;;;;;19.67;32.30;101530.59;5067383;27;51763;-51
2022/03/09 02:23:26;;;;;;;;;36.50;31.00;;;;;19.65;32.50;101529.97;5070191;27;51067;-52
2022/03/09 02:25:51;;;;;;;;;41.00;32.75;;;;;19.63;32.55;101521.06;5066107;28;51010;-51
2022/03/09 02:28:17;;;;;;;;;26.50;26.00;;;;;19.64;32.32;101525.53;5059247;28;51235;-52
2022/03/09 02:30:42;;;;;;;;;33.75;29.50;;;;;19.64;32.11;101531.03;5081412;27;51003;-51
2022/03/09 02:33:08;;;;;;;;;31.00;26.00;;;;;19.62;32.31;101522.97;5075201;27;51155;-51
2022/03/09 02:35:33;;;;;;;;;34.00;30.50;;;;;19.62;32.21;101527.63;5067545;28;51347;-50
2022/03/09 02:38:00;;;;;;;;;37.75;31.25;;;;;19.61;32.23;101532.28;5076544;27;51323;-51
2022/03/09 02:40:25;;;;;;;;;32.75;30.75;;;;;19.59;32.20;101526.97;5073695;27;52679;-50
2022/03/09 02:42:50;;;;;;;;;26.50;24.50;;;;;19.60;32.50;101534.19;5058612;28;51105;-53
2022/03/09 02:45:16;;;;;;;;;35.75;31.50;;;;;19.58;32.14;101524.41;5090692;27;51160;-51
2022/03/09 02:47:43;;;;;;;;;30.75;28.75;;;;;19.58;32.38;101518.91;5075017;27;51094;-52
2022/03/09 02:50:09;;;;;;;;;27.25;25.00;;;;;19.57;32.39;101523.56;5057067;28;52093;-50
2022/03/09 02:52:39;;;;;;;;;29.00;27.75;;;;;19.58;32.33;101530.75;5073046;28;51267;-47
2022/03/09 02:55:06;;;;;;;;;27.50;26.00;;;;;19.57;32.41;101528.22;5076668;27;51203;-50
2022/03/09 02:57:31;;;;;;;;;30.00;26.00;;;;;19.55;32.62;101531.16;5058765;27;51332;-50
2022/03/09 02:59:56;;;;;;;;;30.25;26.00;;;;;19.55;32.07;101542.16;5057686;28;50970;-52
2022/03/09 03:02:22;;;;;;;;;33.50;26.75;;;;;19.54;32.46;101540.44;5068142;28;51123;-51
2022/03/09 03:04:47;;;;;;;;;33.50;28.00;;;;;19.54;32.26;101548.66;5065771;28;51172;-51
2022/03/09 03:07:12;;;;;;;;;31.25;28.00;;;;;19.53;32.49;101546.97;5057080;28;51162;-51
2022/03/09 03:09:38;;;;;;;;;29.25;24.75;;;;;19.52;32.48;101548.03;5079620;27;51121;-51
2022/03/09 03:12:03;;;;;;;;;28.75;25.25;;;;;19.51;32.42;101554.56;5060906;27;51173;-52
2022/03/09 03:14:28;;;;;;;;;26.00;23.00;;;;;19.51;32.46;101554.56;5066156;28;51057;-53
2022/03/09 03:16:54;;;;;;;;;28.00;25.75;;;;;19.50;32.49;101546.53;5065102;27;51109;-50
2022/03/09 03:19:19;;;;;;;;;26.50;24.00;;;;;19.50;32.34;101554.78;5071416;28;51871;-50
2022/03/09 03:21:44;;;;;;;;;29.00;25.25;;;;;19.48;32.54;101549.44;5064748;27;51114;-53
2022/03/09 03:24:10;;;;;;;;;29.75;25.25;;;;;19.49;32.39;101542.09;5066782;28;51051;-49
2022/03/09 03:26:35;;;;;;;;;19.25;16.75;;;;;19.47;32.36;101547.75;5067437;27;51189;-53
2022/03/09 03:29:01;;;;;;;;;27.25;25.75;;;;;19.47;32.38;101542.25;5057807;27;51638;-50
2022/03/09 03:31:29;;;;;;;;;27.50;25.75;;;;;19.46;32.38;101539.72;5073999;28;51088;-53
2022/03/09 03:33:55;;;;;;;;;32.75;28.00;;;;;19.46;32.37;101534.22;5071152;28;51258;-51
2022/03/09 03:36:21;;;;;;;;;32.00;28.25;;;;;19.45;32.31;101533.38;5056666;28;51043;-52
2022/03/09 03:38:46;;;;;;;;;31.00;26.25;;;;;19.43;32.45;101529.97;5061526;28;51096;-53
2022/03/09 03:41:12;;;;;;;;;26.00;24.25;;;;;19.44;32.23;101537.16;5061834;28;54720;-52
2022/03/09 03:43:37;;;;;;;;;32.25;27.75;;;;;19.43;32.62;101543.72;5057843;28;51056;-52
2022/03/09 03:46:02;;;;;;;;;26.75;24.00;;;;;19.42;32.30;101538.44;5075136;28;51325;-52
2022/03/09 03:48:28;;;;;;;;;31.50;27.50;;;;;19.42;32.42;101536.53;5075743;27;51013;-53
2022/03/09 03:50:53;;;;;;;;;24.75;23.50;;;;;19.40;32.32;101538.63;5074395;27;51140;-53
2022/03/09 03:53:18;;;;;;;;;30.75;27.75;;;;;19.41;32.49;101539.47;5057395;28;51066;-55
2022/03/09 03:55:46;;;;;;;;;29.00;27.00;;;;;19.40;32.59;101533.13;5064942;28;51142;-50
2022/03/09 03:58:12;;;;;;;;;30.25;27.75;;;;;19.40;32.38;101537.78;5056175;28;51202;-51
2022/03/09 04:00:37;;;;;;;;;29.25;24.75;;;;;19.40;32.39;101549.63;5063240;28;51140;-54
2022/03/09 04:03:03;;;;;;;;;26.00;23.75;;;;;19.38;32.41;101543.44;5072842;27;51035;-50
2022/03/09 04:05:30;;;;;;;;;31.25;27.50;;;;;19.39;32.48;101549.81;5074482;27;51130;-56
2022/03/09 04:07:55;;;;;;;;;30.00;26.00;;;;;19.37;32.49;101550.00;5058375;27;51987;-51
2022/03/09 04:10:21;;;;;;;;;32.25;24.25;;;;;19.37;32.48;101558.22;5056228;28;51085;-52
2022/03/09 04:12:46;;;;;;;;;29.75;26.25;;;;;19.36;32.52;101548.28;5069841;28;51211;-52
2022/03/09 04:15:11;;;;;;;;;34.25;31.50;;;;;19.37;32.51;101554.63;5064513;27;51148;-52
2022/03/09 04:17:45;;;;;;;;;31.50;29.25;;;;;19.35;32.36;101548.50;5054608;28;54045;-54
2022/03/09 04:20:13;;;;;;;;;36.75;29.75;;;;;19.34;32.58;101555.91;5057743;28;51671;-53
2022/03/09 04:22:38;;;;;;;;;31.00;27.50;;;;;19.33;32.43;101557.78;5059621;28;51302;-52
2022/03/09 04:25:04;;;;;;;;;30.75;27.50;;;;;19.32;32.39;101558.84;5059011;28;51244;-53
2022/03/09 04:27:30;;;;;;;;;30.75;29.50;;;;;19.32;32.51;101556.09;5075450;27;52699;-49
2022/03/09 04:29:55;;;;;;;;;36.25;30.75;;;;;19.32;32.27;101555.25;5072905;27;51124;-51
2022/03/09 04:32:20;;;;;;;;;32.50;28.00;;;;;19.31;32.39;101553.56;5068258;28;51100;-49
2022/03/09 04:34:46;;;;;;;;;30.00;24.75;;;;;19.30;32.37;101543.63;5067148;27;50943;-50
2022/03/09 04:37:11;;;;;;;;;29.75;28.75;;;;;19.29;32.37;101544.66;5074874;27;51235;-52
2022/03/09 04:39:37;;;;;;;;;31.00;29.25;;;;;19.29;32.15;101547.41;5073627;27;51349;-54
2022/03/09 04:42:02;;;;;;;;;34.00;28.75;;;;;19.29;32.46;101544.66;5061947;28;51199;-53
2022/03/09 04:44:28;;;;;;;;;30.75;28.00;;;;;19.28;32.32;101548.47;5059765;28;51136;-54
2022/03/09 04:46:53;;;;;;;;;34.75;27.75;;;;;19.27;32.64;101552.22;5069908;27;51809;-53
2022/03/09 04:49:18;;;;;;;;;34.25;31.50;;;;;19.26;32.26;101550.53;5055575;28;51036;-51
2022/03/09 04:51:44;;;;;;;;;34.50;28.50;;;;;19.26;32.41;101561.50;5063838;28;51227;-52
2022/03/09 04:54:09;;;;;;;;;38.75;31.25;;;;;19.25;32.37;101557.06;5073851;27;51135;-53
2022/03/09 04:56:34;;;;;;;;;32.25;25.00;;;;;19.25;32.40;101568.06;5070194;28;52357;-54
2022/03/09 04:59:00;;;;;;;;;30.25;29.00;;;;;19.24;32.32;101563.63;5069524;28;51052;-54
2022/03/09 05:01:25;;;;;;;;;37.50;33.25;;;;;19.24;32.41;101567.22;5056459;28;51234;-53
2022/03/09 05:03:50;;;;;;;;;41.75;32.75;;;;;19.24;32.49;101574.59;5062730;28;51109;-52
2022/03/09 05:06:16;;;;;;;;;34.25;29.75;;;;;19.22;32.32;101572.06;5065795;28;51103;-50
2022/03/09 05:08:42;;;;;;;;;35.25;31.25;;;;;19.22;32.32;101572.06;5074866;27;51328;-53
2022/03/09 05:11:07;;;;;;;;;36.00;32.25;;;;;19.21;32.51;101575.84;5062640;27;51095;-52
2022/03/09 05:13:32;;;;;;;;;29.25;28.00;;;;;19.21;32.72;101581.34;5057007;27;51122;-54
2022/03/09 05:15:58;;;;;;;;;34.00;28.50;;;;;19.20;32.20;101579.66;5067295;28;52348;-55
2022/03/09 05:18:23;;;;;;;;;31.25;28.00;;;;;19.20;32.34;101581.53;5057633;27;51014;-52
2022/03/09 05:20:49;;;;;;;;;39.00;33.00;;;;;19.20;32.29;101582.41;5063963;28;51055;-52
2022/03/09 05:23:14;;;;;;;;;32.50;31.00;;;;;19.19;32.22;101588.09;5060437;28;51248;-54
2022/03/09 05:25:39;;;;;;;;;30.25;28.50;;;;;19.18;32.47;101592.72;5062985;28;50961;-49
2022/03/09 05:28:05;;;;;;;;;32.75;32.00;;;;;19.18;32.34;101589.13;5055514;28;51054;-51
2022/03/09 05:30:31;;;;;;;;;29.50;25.75;;;;;19.18;32.52;101597.38;5071347;27;50935;-50
2022/03/09 05:32:56;;;;;;;;;33.00;29.00;;;;;19.17;32.39;101595.66;5074038;28;51160;-51
2022/03/09 05:35:21;;;;;;;;;31.25;29.50;;;;;19.16;32.39;101592.06;5068886;27;51863;-52
2022/03/09 05:37:47;;;;;;;;;33.50;28.25;;;;;19.14;32.61;101596.91;5066334;27;51391;-50
2022/03/09 05:40:13;;;;;;;;;27.00;25.25;;;;;19.15;32.40;101606.00;5065833;27;51166;-53
2022/03/09 05:42:39;;;;;;;;;35.25;29.00;;;;;19.14;32.27;101607.88;5074736;27;51227;-52
2022/03/09 05:45:06;;;;;;;;;33.25;27.50;;;;;19.14;32.32;101620.75;5070348;28;51841;-53
2022/03/09 05:47:31;;;;;;;;;28.00;27.00;;;;;19.14;32.49;101623.50;5073464;27;51386;-52
2022/03/09 05:49:57;;;;;;;;;26.25;25.25;;;;;19.12;32.53;101618.22;5063289;27;51100;-54
2022/03/09 05:52:22;;;;;;;;;29.50;27.00;;;;;19.12;32.44;101617.38;5069002;28;51151;-53
2022/03/09 05:54:48;;;;;;;;;27.25;24.75;;;;;19.10;32.40;101628.56;5058607;27;51777;-52
2022/03/09 05:57:17;;;;;;;;;27.00;23.75;;;;;19.11;32.42;101632.16;5055178;28;51101;-51
2022/03/09 05:59:43;;;;;;;;;31.75;25.75;;;;;19.10;32.42;101634.03;5065414;27;51100;-49
2022/03/09 06:02:08;;;;;;;;;32.25;26.50;;;;;19.08;32.49;101630.66;5067168;28;51149;-52
2022/03/09 06:04:33;;;;;;;;;30.75;24.25;;;;;19.08;32.55;101647.13;5060786;27;51745;-53
2022/03/09 06:07:01;;;;;;;;;34.25;28.25;;;;;19.08;32.15;101641.63;5065072;28;51166;-50
2022/03/09 06:09:27;;;;;;;;;45.75;36.75;;;;;19.08;31.91;101638.88;5073309;28;51166;-49
2022/03/09 06:11:52;;;;;;;;;45.25;36.50;;;;;19.06;31.56;101649.19;5074022;27;50968;-53
2022/03/09 06:14:17;;;;;;;;;42.50;35.25;;;;;19.02;31.47;101642.41;5077218;27;51017;-52
2022/03/09 06:16:43;;;;;;;;;49.25;39.50;;;;;19.00;31.40;101650.84;5067393;27;51057;-56
2022/03/09 06:19:08;;;;;;;;;47.25;38.50;;;;;18.97;31.25;101653.13;5070401;27;51235;-49
2022/03/09 06:21:33;;;;;;;;;51.25;41.25;;;;;18.91;31.10;101643.75;5058839;28;51386;-49
2022/03/09 06:23:59;;;;;;;;;58.50;44.25;;;;;18.88;31.04;101644.13;5058945;28;51063;-50
2022/03/09 06:26:24;;;;;;;;;53.25;42.75;;;;;18.85;31.09;101649.16;5070211;27;51204;-51
2022/03/09 06:28:49;;;;;;;;;53.50;43.25;;;;;18.81;30.99;101648.69;5078701;27;51116;-52
2022/03/09 06:31:15;;;;;;;;;47.00;40.25;;;;;18.78;30.89;101648.22;5071775;27;51093;-52
2022/03/09 06:33:40;;;;;;;;;49.75;38.25;;;;;18.73;30.77;101652.38;5067990;28;51055;-51
2022/03/09 06:36:08;;;;;;;;;45.75;36.25;;;;;18.70;31.12;101655.53;5071107;27;51185;-52
2022/03/09 06:38:34;;;;;;;;;50.75;39.00;;;;;18.66;30.86;101645.97;5064201;28;51138;-51
2022/03/09 06:40:59;;;;;;;;;45.00;39.25;;;;;18.64;30.81;101649.91;5063428;27;51335;-49
2022/03/09 06:43:24;;;;;;;;;43.75;33.75;;;;;18.66;31.12;101651.47;5066827;28;51731;-52
2022/03/09 06:45:50;;;;;;;;;42.75;35.50;;;;;18.69;31.42;101659.31;5061974;28;51368;-52
2022/03/09 06:48:15;;;;;;;;;37.00;32.25;;;;;18.75;31.24;101652.19;5071881;28;51158;-51
2022/03/09 06:50:41;;;;;;;;;31.50;29.50;;;;;18.82;31.36;101653.13;5061577;27;51115;-53
2022/03/09 06:53:06;;;;;;;;;34.75;29.00;;;;;18.89;31.37;101654.06;5075951;27;52149;-53
2022/03/09 06:55:31;;;;;;;;;33.25;30.25;;;;;18.99;31.73;101654.63;5065738;27;51268;-51
2022/03/09 06:57:57;;;;;;;;;33.75;30.75;;;;;19.09;31.45;101662.56;5063883;27;51354;-51
2022/03/09 07:00:22;;;;;;;;;28.00;25.75;;;;;19.18;31.75;101653.16;5057337;28;50972;-54
2022/03/09 07:02:48;;;;;;;;;31.25;27.25;;;;;19.27;31.40;101662.94;5065988;28;51996;-49
2022/03/09 07:05:13;;;;;;;;;31.25;25.50;;;;;19.37;31.39;101659.03;5064990;27;51043;-49
2022/03/09 07:07:39;;;;;;;;;27.50;23.50;;;;;19.45;31.52;101654.28;5061725;27;52883;-53
2022/03/09 07:10:10;;;;;;;;;27.25;23.50;;;;;19.54;31.70;101664.09;5066248;27;51275;-51
2022/03/09 07:12:36;;;;;;;;;19.75;15.50;;;;;19.62;31.68;101665.91;5074396;27;52071;-54
2022/03/09 07:15:01;;;;;;;;;28.25;23.50;;;;;19.68;32.05;101675.25;5068474;28;51199;-53
2022/03/09 07:17:26;;;;;;;;;28.25;27.50;;;;;19.74;31.56;101679.97;5062730;27;51098;-52
2022/03/09 07:19:52;;;;;;;;;24.00;22.25;;;;;19.80;31.72;101679.16;5056484;28;51155;-50
2022/03/09 07:22:17;;;;;;;;;22.50;20.25;;;;;19.85;31.95;101687.66;5067834;27;50976;-51
2022/03/09 07:24:43;;;;;;;;;24.50;21.00;;;;;19.89;32.30;101687.06;5067444;27;51095;-53
2022/03/09 07:27:08;;;;;;;;;26.75;21.50;;;;;19.95;32.42;101688.19;5057202;28;51186;-53
2022/03/09 07:29:33;;;;;;;;;17.00;16.25;;;;;20.00;32.66;101699.44;5076257;27;51358;-54
2022/03/09 07:31:59;;;;;;;;;23.75;19.00;;;;;20.07;32.83;101692.09;5067326;27;52069;-53
2022/03/09 07:34:26;;;;;;;;;17.25;17.00;;;;;20.14;32.96;101693.00;5056946;28;51147;-53
2022/03/09 07:36:57;;;;;;;;;23.25;20.50;;;;;20.23;32.81;101701.13;5056389;28;51323;-50
2022/03/09 07:39:24;;;;;;;;;22.25;18.50;;;;;20.29;32.55;101705.78;5060412;27;51279;-53
2022/03/09 07:41:49;;;;;;;;;21.75;17.75;;;;;20.31;32.78;101703.69;5061984;27;51212;-53
2022/03/09 07:44:16;;;;;;;;;19.50;17.75;;;;;20.31;32.95;101714.69;5069044;27;51203;-49
2022/03/09 07:46:41;;;;;;;;;19.75;18.25;;;;;20.28;32.78;101710.44;5068555;28;51222;-51
2022/03/09 07:49:08;;;;;;;;;23.25;18.75;;;;;20.28;32.81;101710.44;5061155;27;51385;-51
2022/03/09 07:51:34;;;;;;;;;23.75;20.50;;;;;20.31;33.21;101714.69;5055291;28;51981;-52
2022/03/09 07:53:59;;;;;;;;;18.75;15.50;;;;;20.36;32.97;101712.22;5064881;28;51276;-52
2022/03/09 07:56:25;;;;;;;;;20.75;18.50;;;;;20.41;32.73;101713.28;5058316;27;51200;-50
2022/03/09 07:58:50;;;;;;;;;24.00;18.25;;;;;20.43;32.67;101718.66;5056141;28;51021;-53
2022/03/09 08:01:15;;;;;;;;;17.25;15.50;;;;;20.41;32.94;101726.19;5059040;28;52092;-48
2022/03/09 08:03:41;;;;;;;;;24.00;23.25;;;;;20.39;32.91;101725.56;5063832;28;51085;-53
2022/03/09 08:06:06;;;;;;;;;20.50;14.75;;;;;20.34;32.94;101717.06;5056486;28;51231;-56
2022/03/09 08:08:31;;;;;;;;;21.25;21.25;;;;;20.31;32.68;101722.94;5054165;28;51117;-52
2022/03/09 08:10:57;;;;;;;;;24.50;22.00;;;;;20.26;32.79;101719.97;5065972;27;52893;-48
2022/03/09 08:13:22;;;;;;;;;28.50;21.75;;;;;20.22;32.62;101724.16;5067588;27;51092;-53
2022/03/09 08:15:48;;;;;;;;;24.25;24.25;;;;;20.16;33.04;101723.91;5064865;27;50980;-53
2022/03/09 08:18:14;;;;;;;;;23.25;20.25;;;;;20.13;32.51;101721.56;5060475;27;51381;-51
2022/03/09 08:20:39;;;;;;;;;26.00;24.50;;;;;20.08;32.64;101729.53;5071701;28;51159;-52
2022/03/09 08:23:06;;;;;;;;;25.25;23.50;;;;;20.05;32.78;101723.59;5065499;27;50972;-53
2022/03/09 08:25:31;;;;;;;;;25.25;21.75;;;;;20.00;32.50;101729.69;5074480;27;51056;-53
2022/03/09 08:27:58;;;;;;;;;21.25;19.00;;;;;19.97;32.79;101730.09;5071934;28;51231;-53
2022/03/09 08:30:24;;;;;;;;;21.25;19.75;;;;;19.95;32.69;101734.09;5062819;27;51201;-52
2022/03/09 08:32:49;;;;;;;;;26.50;21.00;;;;;19.92;32.95;101738.09;5064099;28;51309;-52
2022/03/09 08:35:14;;;;;;;;;20.50;19.75;;;;;19.88;32.90;101742.25;5060444;28;51218;-49
2022/03/09 08:37:40;;;;;;;;;24.50;23.50;;;;;19.84;32.88;101743.72;5070124;28;51154;-50
2022/03/09 08:40:05;;;;;;;;;20.50;20.25;;;;;19.82;32.97;101743.06;5072957;27;51659;-53
2022/03/09 08:42:31;;;;;;;;;23.75;19.00;;;;;19.79;33.23;101743.44;5069782;28;51297;-52
2022/03/09 08:44:56;;;;;;;;;15.00;14.75;;;;;19.78;33.05;101742.59;5064013;28;51368;-51
2022/03/09 08:47:21;;;;;;;;;19.25;18.25;;;;;19.75;32.97;101742.13;5070187;27;51220;-53
2022/03/09 08:49:47;;;;;;;;;19.75;16.75;;;;;19.73;33.04;101749.75;5066361;27;51237;-53
2022/03/09 08:52:13;;;;;;;;;17.25;16.75;;;;;19.71;33.05;101749.09;5054197;28;51238;-49
2022/03/09 08:54:40;;;;;;;;;16.75;16.00;;;;;19.69;32.68;101745.66;5054339;27;51117;-53
2022/03/09 08:57:06;;;;;;;;;15.75;15.00;;;;;19.66;33.04;101744.16;5065906;28;51323;-53
2022/03/09 08:59:31;;;;;;;;;16.00;15.50;;;;;19.64;32.88;101743.50;5054321;28;51518;-52
2022/03/09 09:01:56;;;;;;;;;14.75;14.25;;;;;19.63;33.18;101738.22;5069618;28;51034;-53
2022/03/09 09:04:22;;;;;;;;;23.00;18.75;;;;;19.61;32.83;101738.41;5063882;27;51581;-53
2022/03/09 09:06:47;;;;;;;;;15.25;14.50;;;;;19.58;32.97;101736.88;5070366;27;51093;-52
2022/03/09 09:09:17;;;;;;;;;16.25;15.50;;;;;19.57;33.18;101735.19;5060481;27;51248;-52
2022/03/09 09:11:43;;;;;;;;;16.25;16.25;;;;;19.56;32.94;101738.13;5060318;28;51449;-51
2022/03/09 09:14:08;;;;;;;;;23.25;18.50;;;;;19.55;32.99;101736.41;5054213;28;51121;-52
2022/03/09 09:16:34;;;;;;;;;15.00;15.00;;;;;19.53;33.19;101733.84;5055551;27;51168;-51
2022/03/09 09:18:59;;;;;;;;;15.00;12.75;;;;;19.51;33.28;101733.19;5057082;27;51002;-53
2022/03/09 09:21:24;;;;;;;;;12.50;11.50;;;;;19.50;33.01;101742.50;5072393;28;51044;-52
2022/03/09 09:23:50;;;;;;;;;21.25;16.75;;;;;19.50;33.10;101741.63;5065279;27;52565;-50
2022/03/09 09:26:18;;;;;;;;;19.00;14.25;;;;;19.48;33.06;101736.31;5054489;27;51248;-48
2022/03/09 09:28:44;;;;;;;;;20.00;15.00;;;;;19.47;33.05;101734.63;5056278;27;51108;-49
2022/03/09 09:31:09;;;;;;;;;16.25;12.00;;;;;19.46;32.99;101732.91;5073037;28;51289;-50
2022/03/09 09:33:34;;;;;;;;;15.25;14.75;;;;;19.46;33.24;101727.41;5057592;28;51200;-53
2022/03/09 09:36:00;;;;;;;;;12.25;11.75;;;;;19.45;33.39;101724.88;5069079;27;51539;-53
2022/03/09 09:38:27;;;;;;;;;13.50;12.25;;;;;19.44;33.43;101726.75;5057116;28;52788;-52
2022/03/09 09:40:55;;;;;;;;;14.75;13.50;;;;;19.43;33.31;101730.56;5062355;27;51120;-54
2022/03/09 09:43:21;;;;;;;;;12.00;10.25;;;;;19.43;33.41;101722.31;5071826;27;51101;-53
2022/03/09 09:45:47;;;;;;;;;15.25;14.50;;;;;19.43;33.52;101715.97;5060117;28;51301;-51
2022/03/09 09:48:12;;;;;;;;;12.50;11.25;;;;;19.42;33.50;101709.63;5068395;27;51103;-53
2022/03/09 09:50:39;;;;;;;;;12.75;11.75;;;;;19.44;33.26;101713.03;5068001;27;51061;-53
2022/03/09 09:53:07;;;;;;;;;11.50;10.25;;;;;19.46;33.36;101699.09;5072305;27;51088;-52
2022/03/09 09:55:33;;;;;;;;;11.25;11.25;;;;;19.48;33.21;101708.84;5058947;27;51171;-52
2022/03/09 09:57:58;;;;;;;;;15.00;11.75;;;;;19.50;33.09;101700.41;5066663;28;51802;-51
2022/03/09 10:00:24;;;;;;;;;13.25;11.50;;;;;19.51;33.32;101708.47;5075299;28;51314;-50
2022/03/09 10:02:50;;;;;;;;;17.75;12.75;;;;;19.52;33.22;101703.81;5069364;27;51126;-52
2022/03/09 10:05:18;;;;;;;;;15.75;11.25;;;;;19.54;33.39;101707.22;5072438;27;51390;-53
2022/03/09 10:08:02;;;;;;;;;13.50;9.25;;;;;19.56;33.40;101699.66;5058912;28;51954;-52
2022/03/09 10:10:28;;;;;;;;;12.50;12.50;;;;;19.57;33.29;101704.09;5058181;28;51605;-50
2022/03/09 10:13:40;;;;;;;;;14.00;12.50;;;;;19.57;33.25;101698.59;5075691;27;51585;-52
2022/03/09 10:16:21;;;;;;;;;14.75;12.50;;;;;19.58;33.45;101701.16;5057862;28;51054;-52
2022/03/09 10:18:54;;;;;;;;;13.75;10.25;;;;;19.60;33.13;101700.97;5076169;27;51502;-51
2022/03/09 10:21:26;;;;;;;;;15.00;10.25;;;;;19.62;33.38;101695.28;5057193;27;51308;-52
2022/03/09 10:24:01;;;;;;;;;13.00;10.00;;;;;19.63;33.42;101697.84;5056925;28;51152;-52
2022/03/09 10:26:45;;;;;;;;;12.50;12.50;;;;;19.64;33.21;101685.78;5062922;28;51534;-49
2022/03/09 10:29:13;;;;;;;;;11.00;8.50;;;;;19.64;33.20;101691.28;5064800;27;52826;-50
2022/03/09 10:31:42;;;;;;;;;9.25;9.00;;;;;19.67;33.23;101690.03;5073661;27;51115;-53
2022/03/09 10:34:12;;;;;;;;;13.00;9.50;;;;;19.69;33.22;101699.78;5061120;27;51182;-51
2022/03/09 10:36:51;;;;;;;;;12.50;8.50;;;;;19.71;33.15;101694.09;5075303;28;51077;-47
2022/03/09 10:39:17;;;;;;;;;13.25;8.25;;;;;19.72;33.49;101693.06;5063139;28;51675;-51
2022/03/09 10:41:43;;;;;;;;;8.00;8.00;;;;;19.74;33.19;101690.97;5074930;27;51565;-52
2022/03/09 10:44:10;;;;;;;;;7.50;7.50;;;;;19.75;33.35;101681.66;5074846;28;51079;-50
2022/03/09 10:46:44;;;;;;;;;5.75;5.75;;;;;19.76;33.17;101680.59;5060115;28;51017;-50
2022/03/09 10:49:12;;;;;;;;;9.25;7.25;;;;;19.78;33.30;101673.00;5060413;28;51189;-49
2022/03/09 10:51:41;;;;;;;;;9.25;9.25;;;;;19.80;33.20;101681.91;5062050;28;53499;-50
2022/03/09 10:54:35;;;;;;;;;8.75;8.00;;;;;19.80;33.26;101680.03;5065677;28;52793;-51
2022/03/09 10:57:11;;;;;;;;;9.25;8.25;;;;;19.81;33.61;101681.72;5058340;27;51568;-51
2022/03/09 10:59:49;;;;;;;;;7.75;7.00;;;;;19.84;33.65;101691.47;5060364;28;51654;-53
2022/03/09 11:02:21;;;;;;;;;12.00;10.00;;;;;19.84;33.86;101684.06;5059911;27;52886;-56
2022/03/09 11:05:13;;;;;;;;;8.00;7.50;;;;;19.88;33.76;101682.63;5062779;28;51402;-53
2022/03/09 11:07:39;;;;;;;;;10.00;8.00;;;;;19.98;34.26;101681.44;5064343;28;51099;-53
2022/03/09 11:10:08;;;;;;;;;11.00;8.00;;;;;20.08;34.32;101680.03;5063320;27;51139;-52